Time;durP1;ratioP1;P1;durP2;ratioP2;P2;SDS_P1;SDS_P2;PMS_P1;PMS_P2;Temp;Humidity;BMP_temperature;BMP_pressure;BME280_temperature;BME280_humidity;BME280_pressure;Samples;Min_cycle;Max_cycle;Signal;HPM_P1;HPM_P2
2022/03/04 00:00:31;;;;;;;;;;;18.30;47.90;;;;;;5040756;28;20028;-51
2022/03/04 00:02:56;;;;;;;;;;;18.30;48.00;;;;;;5029470;28;20334;-52
2022/03/04 00:05:22;;;;;;;;;;;18.30;47.90;;;;;;5042545;28;20002;-50
2022/03/04 00:07:47;;;;;;;;;;;18.30;48.00;;;;;;5035973;28;20360;-51
2022/03/04 00:10:13;;;;;;;;;;;18.30;47.90;;;;;;5041382;28;19916;-50
2022/03/04 00:12:38;;;;;;;;;;;18.10;48.20;;;;;;5028516;28;20416;-53
2022/03/04 00:15:04;;;;;;;;;;;18.20;48.30;;;;;;5040970;28;19913;-50
2022/03/04 00:17:29;;;;;;;;;;;18.20;48.20;;;;;;5032392;28;19913;-53
2022/03/04 00:19:55;;;;;;;;;;;18.20;48.00;;;;;;5021069;28;20271;-50
2022/03/04 00:22:21;;;;;;;;;;;18.20;48.00;;;;;;5030118;28;19921;-51
2022/03/04 00:24:46;;;;;;;;;;;18.20;48.60;;;;;;5033309;28;20340;-50
2022/03/04 00:27:12;;;;;;;;;;;18.30;47.90;;;;;;5034034;28;20000;-51
2022/03/04 00:29:37;;;;;;;;;;;18.30;47.80;;;;;;5036787;28;19942;-50
2022/03/04 00:32:03;;;;;;;;;;;18.30;47.80;;;;;;5037264;28;20332;-53
2022/03/04 00:34:28;;;;;;;;;;;18.20;47.80;;;;;;5031145;28;19968;-50
2022/03/04 00:36:54;;;;;;;;;;;18.20;47.80;;;;;;5025300;28;20400;-52
2022/03/04 00:39:19;;;;;;;;;;;18.20;47.80;;;;;;5032872;28;19921;-50
2022/03/04 00:41:44;;;;;;;;;;;18.20;47.90;;;;;;5043689;28;19919;-50
2022/03/04 00:44:10;;;;;;;;;;;18.20;47.80;;;;;;5043664;28;20341;-51
2022/03/04 00:46:36;;;;;;;;;;;18.30;47.80;;;;;;5035261;28;19916;-50
2022/03/04 00:49:02;;;;;;;;;;;18.20;47.70;;;;;;5033486;28;19912;-50
2022/03/04 00:51:27;;;;;;;;;;;18.20;47.90;;;;;;5038386;28;20037;-50
2022/03/04 00:53:52;;;;;;;;;;;18.20;47.90;;;;;;5023389;28;20392;-51
2022/03/04 00:56:18;;;;;;;;;;;18.20;47.80;;;;;;5024772;28;19940;-50
2022/03/04 00:58:43;;;;;;;;;;;18.20;47.70;;;;;;5033011;28;19912;-51
2022/03/04 01:01:09;;;;;;;;;;;18.20;47.60;;;;;;5029342;28;20405;-51
2022/03/04 01:03:34;;;;;;;;;;;18.20;47.60;;;;;;5027464;28;19958;-52
2022/03/04 01:06:00;;;;;;;;;;;18.30;47.50;;;;;;5044689;28;19917;-52
2022/03/04 01:08:25;;;;;;;;;;;18.20;47.50;;;;;;5043250;28;20424;-50
2022/03/04 01:10:51;;;;;;;;;;;18.20;47.50;;;;;;5025467;28;19914;-51
2022/03/04 01:13:17;;;;;;;;;;;18.20;47.60;;;;;;5030224;28;19913;-53
2022/03/04 01:15:42;;;;;;;;;;;18.20;47.70;;;;;;5025159;28;19971;-52
2022/03/04 01:18:08;;;;;;;;;;;18.20;47.60;;;;;;5023745;28;19917;-52
2022/03/04 01:20:33;;;;;;;;;;;18.20;47.60;;;;;;5040930;28;19940;-50
2022/03/04 01:22:59;;;;;;;;;;;18.20;47.60;;;;;;5015414;28;19925;-53
2022/03/04 01:25:24;;;;;;;;;;;18.20;47.60;;;;;;5038520;28;20428;-50
2022/03/04 01:27:50;;;;;;;;;;;18.20;47.40;;;;;;5044399;28;20093;-52
2022/03/04 01:30:15;;;;;;;;;;;18.20;47.40;;;;;;5042764;28;19913;-50
2022/03/04 01:32:41;;;;;;;;;;;18.20;47.40;;;;;;5035907;28;20309;-52
2022/03/04 01:35:06;;;;;;;;;;;18.10;47.60;;;;;;5024066;28;19913;-51
2022/03/04 01:37:32;;;;;;;;;;;18.20;47.60;;;;;;5027349;28;19913;-51
2022/03/04 01:39:57;;;;;;;;;;;18.20;47.50;;;;;;5033454;28;19913;-49
2022/03/04 01:42:23;;;;;;;;;;;18.10;47.60;;;;;;5032888;28;19913;-50
2022/03/04 01:44:48;;;;;;;;;;;18.10;47.70;;;;;;5024494;28;20425;-50
2022/03/04 01:47:14;;;;;;;;;;;18.10;47.70;;;;;;5042861;28;19917;-50
2022/03/04 01:49:40;;;;;;;;;;;18.10;47.60;;;;;;5036159;28;19921;-52
2022/03/04 01:52:05;;;;;;;;;;;18.10;47.50;;;;;;5036792;28;20039;-53
2022/03/04 01:54:31;;;;;;;;;;;18.20;47.50;;;;;;5033207;28;19913;-50
2022/03/04 01:56:56;;;;;;;;;;;18.10;47.60;;;;;;5043925;28;20006;-50
2022/03/04 01:59:22;;;;;;;;;;;18.10;47.60;;;;;;5026290;28;19917;-50
2022/03/04 02:01:47;;;;;;;;;;;18.00;47.60;;;;;;5036501;28;19967;-51
2022/03/04 02:04:13;;;;;;;;;;;18.20;47.50;;;;;;5023596;28;19931;-49
2022/03/04 02:06:38;;;;;;;;;;;18.10;47.40;;;;;;5042640;28;19924;-53
2022/03/04 02:09:04;;;;;;;;;;;18.00;47.80;;;;;;5022157;28;19947;-51
2022/03/04 02:11:29;;;;;;;;;;;18.00;47.60;;;;;;5023444;28;19990;-50
2022/03/04 02:13:55;;;;;;;;;;;18.00;47.60;;;;;;5017310;28;19919;-50
2022/03/04 02:16:27;;;;;;;;;;;18.10;47.40;;;;;;5029279;28;19913;-50
2022/03/04 02:18:52;;;;;;;;;;;18.10;47.40;;;;;;5005610;28;19917;-50
2022/03/04 02:21:20;;;;;;;;;;;18.00;47.40;;;;;;5031741;28;19929;-53
2022/03/04 02:23:46;;;;;;;;;;;18.10;47.40;;;;;;5023467;28;19960;-50
2022/03/04 02:26:12;;;;;;;;;;;18.20;47.30;;;;;;5036259;28;19927;-53
2022/03/04 02:28:37;;;;;;;;;;;18.10;47.40;;;;;;5043003;28;19916;-53
2022/03/04 02:31:03;;;;;;;;;;;18.10;47.40;;;;;;5027773;28;19959;-50
2022/03/04 02:33:28;;;;;;;;;;;18.10;47.40;;;;;;5038590;28;19923;-51
2022/03/04 02:35:54;;;;;;;;;;;18.10;47.30;;;;;;5033750;28;19993;-50
2022/03/04 02:38:19;;;;;;;;;;;18.10;47.40;;;;;;5026905;28;19917;-50
2022/03/04 02:40:44;;;;;;;;;;;18.20;47.30;;;;;;5034829;28;20251;-53
2022/03/04 02:43:10;;;;;;;;;;;18.10;47.90;;;;;;5040602;28;19925;-51
2022/03/04 02:45:35;;;;;;;;;;;18.10;47.20;;;;;;5039030;28;20404;-52
2022/03/04 02:48:01;;;;;;;;;;;18.10;47.30;;;;;;5033558;28;19962;-51
2022/03/04 02:50:26;;;;;;;;;;;17.90;47.50;;;;;;5027985;28;19913;-50
2022/03/04 02:52:52;;;;;;;;;;;17.90;48.50;;;;;;5023969;28;19913;-50
2022/03/04 02:55:17;;;;;;;;;;;17.70;48.40;;;;;;5026983;28;20505;-50
2022/03/04 02:57:44;;;;;;;;;;;17.70;48.50;;;;;;5022576;28;20143;-52
2022/03/04 03:00:10;;;;;;;;;;;18.00;48.00;;;;;;5021811;28;19979;-53
2022/03/04 03:02:35;;;;;;;;;;;18.10;47.70;;;;;;5041753;28;19993;-55
2022/03/04 03:05:01;;;;;;;;;;;18.20;47.70;;;;;;5032422;28;20348;-54
2022/03/04 03:07:26;;;;;;;;;;;18.40;47.20;;;;;;5027264;28;19913;-53
2022/03/04 03:09:52;;;;;;;;;;;18.60;46.90;;;;;;5027547;28;20320;-54
2022/03/04 03:12:17;;;;;;;;;;;18.60;46.70;;;;;;5025211;28;19919;-54
2022/03/04 03:14:43;;;;;;;;;;;18.70;46.70;;;;;;5030548;28;20424;-51
2022/03/04 03:17:08;;;;;;;;;;;18.80;46.40;;;;;;5026264;28;19920;-53
2022/03/04 03:19:34;;;;;;;;;;;18.80;46.30;;;;;;5038613;28;19919;-54
2022/03/04 03:21:59;;;;;;;;;;;18.90;46.10;;;;;;5039278;28;19917;-54
2022/03/04 03:24:24;;;;;;;;;;;19.00;46.00;;;;;;5041275;28;19919;-52
2022/03/04 03:26:50;;;;;;;;;;;19.00;45.80;;;;;;5028614;28;20386;-50
2022/03/04 03:29:15;;;;;;;;;;;19.10;45.70;;;;;;5041354;28;19913;-55
2022/03/04 03:31:41;;;;;;;;;;;19.00;45.70;;;;;;5037184;28;19921;-52
2022/03/04 03:34:06;;;;;;;;;;;19.00;45.70;;;;;;5028278;28;20355;-52
2022/03/04 03:36:32;;;;;;;;;;;19.10;45.70;;;;;;5034931;28;19923;-54
2022/03/04 03:38:57;;;;;;;;;;;19.10;45.70;;;;;;5041441;28;19913;-55
2022/03/04 03:41:23;;;;;;;;;;;19.00;45.60;;;;;;5037120;28;19920;-52
2022/03/04 03:43:49;;;;;;;;;;;19.10;45.60;;;;;;5035481;28;19952;-53
2022/03/04 03:46:14;;;;;;;;;;;19.00;45.70;;;;;;5028701;28;19936;-53
2022/03/04 03:48:40;;;;;;;;;;;19.10;45.50;;;;;;5030151;28;19913;-50
2022/03/04 03:51:06;;;;;;;;;;;19.10;45.50;;;;;;5026802;28;19976;-50
2022/03/04 03:53:32;;;;;;;;;;;19.10;45.50;;;;;;5041828;28;20259;-54
2022/03/04 03:55:57;;;;;;;;;;;19.10;45.40;;;;;;5028265;28;19928;-53
2022/03/04 03:58:23;;;;;;;;;;;19.00;45.60;;;;;;5023909;28;19917;-54
2022/03/04 04:00:48;;;;;;;;;;;19.00;45.60;;;;;;5041374;28;19924;-53
2022/03/04 04:03:14;;;;;;;;;;;19.00;45.70;;;;;;5028301;28;19919;-54
2022/03/04 04:05:39;;;;;;;;;;;19.00;45.50;;;;;;5038625;28;19975;-53
2022/03/04 04:08:05;;;;;;;;;;;19.00;45.60;;;;;;5034692;28;19928;-55
2022/03/04 04:10:31;;;;;;;;;;;19.00;45.70;;;;;;5032827;28;20370;-53
2022/03/04 04:12:57;;;;;;;;;;;18.90;45.60;;;;;;5042664;28;19917;-51
2022/03/04 04:15:22;;;;;;;;;;;19.00;45.70;;;;;;5039052;28;19963;-54
2022/03/04 04:17:47;;;;;;;;;;;18.90;45.60;;;;;;5030078;28;19913;-51
2022/03/04 04:20:13;;;;;;;;;;;18.90;45.60;;;;;;5039113;28;19916;-55
2022/03/04 04:22:38;;;;;;;;;;;18.90;45.70;;;;;;5041082;28;19920;-54
2022/03/04 04:25:04;;;;;;;;;;;18.80;45.70;;;;;;5024718;28;19931;-49
2022/03/04 04:27:30;;;;;;;;;;;18.80;45.90;;;;;;5032504;28;19924;-53
2022/03/04 04:29:55;;;;;;;;;;;18.70;45.80;;;;;;5040378;28;20458;-52
2022/03/04 04:32:21;;;;;;;;;;;18.70;45.90;;;;;;5036659;28;19913;-52
2022/03/04 04:34:46;;;;;;;;;;;18.70;46.00;;;;;;5022635;28;19913;-54
2022/03/04 04:37:12;;;;;;;;;;;18.70;46.00;;;;;;5027913;28;19967;-53
2022/03/04 04:39:37;;;;;;;;;;;18.70;45.90;;;;;;5035579;28;20392;-52
2022/03/04 04:42:03;;;;;;;;;;;18.70;46.00;;;;;;5038700;28;19917;-53
2022/03/04 04:44:28;;;;;;;;;;;18.60;46.00;;;;;;5039622;28;19984;-54
2022/03/04 04:46:54;;;;;;;;;;;18.60;46.00;;;;;;5035332;28;19913;-53
2022/03/04 04:49:19;;;;;;;;;;;18.60;46.10;;;;;;5034812;28;19959;-54
2022/03/04 04:51:45;;;;;;;;;;;18.60;46.20;;;;;;5035715;28;20464;-55
2022/03/04 04:54:10;;;;;;;;;;;18.50;46.10;;;;;;5042931;28;19913;-53
2022/03/04 04:56:36;;;;;;;;;;;18.50;46.10;;;;;;5027111;28;19914;-51
2022/03/04 04:59:01;;;;;;;;;;;18.50;46.10;;;;;;5037474;28;19975;-52
2022/03/04 05:01:26;;;;;;;;;;;18.60;46.10;;;;;;5026906;28;19917;-49
2022/03/04 05:03:52;;;;;;;;;;;18.50;46.10;;;;;;5036724;28;19920;-52
2022/03/04 05:06:17;;;;;;;;;;;18.50;46.10;;;;;;5033059;28;19925;-52
2022/03/04 05:08:43;;;;;;;;;;;18.60;46.10;;;;;;5029430;28;19917;-52
2022/03/04 05:11:08;;;;;;;;;;;18.60;46.10;;;;;;5040732;28;19913;-54
2022/03/04 05:13:34;;;;;;;;;;;18.50;46.10;;;;;;5033857;28;19913;-54
2022/03/04 05:15:59;;;;;;;;;;;18.50;46.20;;;;;;5032889;28;19982;-52
2022/03/04 05:18:25;;;;;;;;;;;18.50;46.10;;;;;;5035206;28;19920;-52
2022/03/04 05:20:50;;;;;;;;;;;18.50;46.20;;;;;;5024199;28;19913;-50
2022/03/04 05:23:59;;;;;;;;;;;18.50;46.20;;;;;;5034827;28;19916;-49
2022/03/04 05:26:01;;;;;;;;;;;18.50;46.30;;;;;;5035737;28;19917;-49
2022/03/04 05:28:26;;;;;;;;;;;18.50;46.20;;;;;;5024252;28;19913;-52
2022/03/04 05:30:52;;;;;;;;;;;18.50;46.20;;;;;;5028054;28;19951;-49
2022/03/04 05:33:17;;;;;;;;;;;18.50;46.20;;;;;;5038733;28;19912;-50
2022/03/04 05:35:43;;;;;;;;;;;18.50;46.20;;;;;;5035074;28;19913;-50
2022/03/04 05:38:08;;;;;;;;;;;18.50;46.20;;;;;;5039622;28;20295;-51
2022/03/04 05:40:34;;;;;;;;;;;18.40;46.10;;;;;;5023355;28;19917;-53
2022/03/04 05:42:59;;;;;;;;;;;18.40;46.10;;;;;;5024994;28;20013;-49
2022/03/04 05:45:25;;;;;;;;;;;18.40;46.30;;;;;;5031519;28;20330;-51
2022/03/04 05:47:50;;;;;;;;;;;18.40;46.40;;;;;;5017530;28;21416;-51
2022/03/04 05:50:15;;;;;;;;;;;18.40;46.30;;;;;;5023916;28;19921;-50
2022/03/04 05:52:41;;;;;;;;;;;18.40;46.50;;;;;;5039510;28;19938;-49
2022/03/04 05:55:07;;;;;;;;;;;18.40;46.60;;;;;;5044770;28;20266;-50
2022/03/04 05:57:32;;;;;;;;;;;18.40;46.80;;;;;;5037129;28;19909;-52
2022/03/04 05:59:59;;;;;;;;;;;18.40;47.70;;;;;;4987345;28;20405;-52
2022/03/04 06:02:26;;;;;;;;;;;18.40;47.20;;;;;;5033566;28;20469;-51
2022/03/04 06:04:51;;;;;;;;;;;18.30;47.40;;;;;;5039011;28;19917;-51
2022/03/04 06:07:16;;;;;;;;;;;18.30;47.40;;;;;;5029185;28;20289;-52
2022/03/04 06:09:42;;;;;;;;;;;18.50;47.30;;;;;;5036941;28;19919;-50
2022/03/04 06:12:07;;;;;;;;;;;18.50;47.20;;;;;;5031201;28;19925;-51
2022/03/04 06:14:33;;;;;;;;;;;18.60;47.10;;;;;;5032808;28;19913;-52
2022/03/04 06:16:58;;;;;;;;;;;18.60;47.10;;;;;;5014534;28;19921;-51
2022/03/04 06:19:24;;;;;;;;;;;18.60;47.00;;;;;;5038307;28;19920;-51
2022/03/04 06:21:49;;;;;;;;;;;18.60;47.10;;;;;;5038240;28;20347;-51
2022/03/04 06:24:15;;;;;;;;;;;18.60;47.10;;;;;;5037029;28;19913;-51
2022/03/04 06:26:40;;;;;;;;;;;18.50;47.40;;;;;;5040271;28;19974;-54
2022/03/04 06:29:06;;;;;;;;;;;18.60;47.60;;;;;;5027694;28;20422;-51
2022/03/04 06:31:31;;;;;;;;;;;18.60;47.80;;;;;;5035417;28;20285;-52
2022/03/04 06:33:57;;;;;;;;;;;18.70;48.10;;;;;;5034307;28;20062;-51
2022/03/04 06:36:22;;;;;;;;;;;18.70;48.10;;;;;;5027066;28;19915;-53
2022/03/04 06:38:48;;;;;;;;;;;18.60;48.10;;;;;;5002625;28;19924;-53
2022/03/04 06:41:14;;;;;;;;;;;18.40;48.60;;;;;;5025945;28;20648;-53
2022/03/04 06:43:39;;;;;;;;;;;18.50;50.10;;;;;;5025744;28;19917;-53
2022/03/04 06:46:06;;;;;;;;;;;18.50;49.30;;;;;;5004287;28;20440;-54
2022/03/04 06:48:32;;;;;;;;;;;18.40;49.20;;;;;;5021652;28;19985;-54
2022/03/04 06:50:57;;;;;;;;;;;18.30;49.20;;;;;;5022520;28;19913;-54
2022/03/04 06:53:23;;;;;;;;;;;18.20;49.60;;;;;;5031919;28;19962;-55
2022/03/04 06:55:49;;;;;;;;;;;18.30;50.20;;;;;;5040229;28;19943;-53
2022/03/04 06:58:14;;;;;;;;;;;18.10;50.40;;;;;;5029046;28;19996;-52
2022/03/04 07:00:41;;;;;;;;;;;18.10;50.30;;;;;;5023191;28;19921;-55
2022/03/04 07:03:06;;;;;;;;;;;17.90;51.20;;;;;;5023701;28;20346;-54
2022/03/04 07:05:32;;;;;;;;;;;17.70;50.10;;;;;;5030052;28;20000;-50
2022/03/04 07:07:57;;;;;;;;;;;17.70;49.50;;;;;;5024312;28;20329;-55
2022/03/04 07:10:23;;;;;;;;;;;17.70;49.70;;;;;;5031623;28;19913;-55
2022/03/04 07:12:48;;;;;;;;;;;17.60;49.70;;;;;;5042714;28;19919;-54
2022/03/04 07:15:14;;;;;;;;;;;17.50;49.70;;;;;;5024179;28;20131;-55
2022/03/04 07:17:39;;;;;;;;;;;17.40;50.20;;;;;;5022138;28;19917;-56
2022/03/04 07:20:05;;;;;;;;;;;17.40;50.30;;;;;;5032277;28;19924;-54
2022/03/04 07:22:31;;;;;;;;;;;17.40;50.80;;;;;;5030169;28;20390;-53
2022/03/04 07:24:56;;;;;;;;;;;17.50;51.20;;;;;;5035368;28;19917;-53
2022/03/04 07:27:21;;;;;;;;;;;17.70;51.00;;;;;;5021024;28;19921;-54
2022/03/04 07:29:47;;;;;;;;;;;17.70;50.80;;;;;;5028191;28;19919;-53
2022/03/04 07:32:12;;;;;;;;;;;17.60;50.60;;;;;;5041218;28;20790;-52
2022/03/04 07:34:38;;;;;;;;;;;17.60;51.00;;;;;;5035768;28;20218;-53
2022/03/04 07:37:03;;;;;;;;;;;17.60;51.20;;;;;;5021255;28;19921;-52
2022/03/04 07:39:29;;;;;;;;;;;17.50;50.70;;;;;;5019853;28;19975;-56
2022/03/04 07:41:54;;;;;;;;;;;17.40;51.10;;;;;;5021731;28;19913;-54
2022/03/04 07:44:20;;;;;;;;;;;17.40;51.30;;;;;;5040054;28;19970;-53
2022/03/04 07:46:45;;;;;;;;;;;17.40;51.10;;;;;;5024760;28;20301;-52
2022/03/04 07:49:11;;;;;;;;;;;17.40;50.90;;;;;;5028601;28;19917;-55
2022/03/04 07:51:36;;;;;;;;;;;17.40;51.00;;;;;;5029533;28;20119;-51
2022/03/04 07:54:01;;;;;;;;;;;17.40;50.90;;;;;;5004693;28;19963;-56
2022/03/04 07:56:27;;;;;;;;;;;17.40;50.80;;;;;;5024547;28;19913;-55
2022/03/04 08:01:26;;;;;;;;;;;17.40;50.60;;;;;;5038509;28;20023;-55
2022/03/04 08:03:52;;;;;;;;;;;17.40;50.70;;;;;;5040662;28;20003;-56
2022/03/04 08:06:18;;;;;;;;;;;17.50;50.90;;;;;;5040772;28;20545;-56
2022/03/04 08:08:43;;;;;;;;;;;17.50;50.60;;;;;;5041153;28;19913;-55
2022/03/04 08:11:10;;;;;;;;;;;17.50;50.50;;;;;;5040354;28;21380;-55
2022/03/04 08:13:36;;;;;;;;;;;17.50;51.30;;;;;;5040457;28;20285;-55
2022/03/04 08:16:02;;;;;;;;;;;17.40;50.60;;;;;;5041255;28;20179;-54
2022/03/04 08:18:27;;;;;;;;;;;17.50;51.10;;;;;;5039075;28;19913;-54
2022/03/04 08:20:53;;;;;;;;;;;17.50;51.00;;;;;;5041373;28;19920;-54
2022/03/04 08:23:19;;;;;;;;;;;17.50;51.00;;;;;;5040113;28;19920;-56
2022/03/04 08:25:44;;;;;;;;;;;17.40;51.10;;;;;;5041490;28;19924;-55
2022/03/04 08:28:10;;;;;;;;;;;17.40;51.20;;;;;;5041192;28;20212;-51
2022/03/04 08:30:35;;;;;;;;;;;17.40;51.10;;;;;;5041000;28;19913;-55
2022/03/04 08:33:01;;;;;;;;;;;17.40;51.00;;;;;;5039099;28;19913;-56
2022/03/04 08:35:26;;;;;;;;;;;17.40;51.00;;;;;;5041421;28;19953;-55
2022/03/04 08:37:54;;;;;;;;;;;17.40;51.00;;;;;;5040474;28;20291;-52
2022/03/04 08:40:20;;;;;;;;;;;17.50;51.00;;;;;;5040215;28;19967;-52
2022/03/04 08:42:45;;;;;;;;;;;17.40;50.80;;;;;;5040639;28;19913;-55
2022/03/04 08:45:11;;;;;;;;;;;17.50;50.80;;;;;;5042649;28;19920;-52
2022/03/04 08:47:38;;;;;;;;;;;17.50;50.90;;;;;;5044754;28;20461;-51
2022/03/04 08:50:04;;;;;;;;;;;17.50;50.90;;;;;;5042235;28;19913;-55
2022/03/04 08:52:30;;;;;;;;;;;17.50;50.80;;;;;;5044558;28;19974;-54
2022/03/04 08:54:55;;;;;;;;;;;17.60;50.70;;;;;;5044255;28;20448;-53
2022/03/04 08:57:21;;;;;;;;;;;17.60;50.60;;;;;;5044048;28;19979;-53
2022/03/04 08:59:46;;;;;;;;;;;17.60;50.50;;;;;;5043875;28;19917;-55
2022/03/04 09:02:11;;;;;;;;;;;17.60;50.40;;;;;;5044092;28;20060;-53
2022/03/04 09:04:37;;;;;;;;;;;17.60;50.40;;;;;;5044339;28;19951;-51
2022/03/04 09:07:05;;;;;;;;;;;17.60;50.50;;;;;;5044550;28;19913;-55
2022/03/04 09:09:30;;;;;;;;;;;17.70;50.50;;;;;;5041254;28;19944;-51
2022/03/04 09:11:55;;;;;;;;;;;17.70;50.40;;;;;;5043683;28;20373;-52
2022/03/04 09:14:23;;;;;;;;;;;17.70;50.20;;;;;;5043556;28;19924;-55
2022/03/04 09:16:49;;;;;;;;;;;17.70;50.20;;;;;;5041739;28;20384;-52
2022/03/04 09:19:14;;;;;;;;;;;17.70;50.00;;;;;;5049645;28;19917;-56
2022/03/04 09:21:39;;;;;;;;;;;17.70;50.10;;;;;;5044486;28;20363;-51
2022/03/04 09:24:06;;;;;;;;;;;17.80;50.00;;;;;;5044131;28;19917;-53
2022/03/04 09:26:32;;;;;;;;;;;17.80;49.90;;;;;;5043034;28;19917;-52
2022/03/04 09:28:57;;;;;;;;;;;17.80;49.80;;;;;;5042881;28;19912;-53
2022/03/04 09:31:23;;;;;;;;;;;17.80;49.80;;;;;;5043351;28;19913;-53
2022/03/04 09:33:48;;;;;;;;;;;17.80;49.80;;;;;;5043864;28;20019;-53
2022/03/04 09:36:14;;;;;;;;;;;17.80;49.70;;;;;;5044295;28;19913;-54
2022/03/04 09:38:40;;;;;;;;;;;17.90;49.60;;;;;;5042567;28;19963;-52
2022/03/04 09:41:06;;;;;;;;;;;17.90;49.70;;;;;;5043366;28;19956;-55
2022/03/04 09:43:31;;;;;;;;;;;17.80;49.60;;;;;;5043407;28;20292;-55
2022/03/04 09:45:56;;;;;;;;;;;17.90;49.60;;;;;;5041285;28;19923;-55
2022/03/04 09:48:22;;;;;;;;;;;17.90;49.60;;;;;;5043218;28;19913;-51
2022/03/04 09:50:48;;;;;;;;;;;17.90;49.50;;;;;;5041305;28;20310;-53
2022/03/04 09:53:13;;;;;;;;;;;17.90;49.50;;;;;;5034566;28;19924;-55
2022/03/04 09:55:39;;;;;;;;;;;17.90;49.50;;;;;;5043495;28;19920;-52
2022/03/04 09:58:17;;;;;;;;;;;17.90;49.40;;;;;;5043389;28;19921;-53
2022/03/04 10:00:43;;;;;;;;;;;17.90;49.50;;;;;;5041349;28;20503;-52
2022/03/04 10:03:21;;;;;;;;;;;17.90;49.30;;;;;;5043322;28;19956;-54
2022/03/04 10:05:52;;;;;;;;;;;17.90;49.20;;;;;;5037167;28;20229;-53
2022/03/04 10:08:18;;;;;;;;;;;17.90;49.20;;;;;;5042655;28;19991;-55
2022/03/04 10:10:47;;;;;;;;;;;17.90;49.20;;;;;;5042316;28;19958;-55
2022/03/04 10:13:13;;;;;;;;;;;17.90;49.20;;;;;;5024334;28;19917;-56
2022/03/04 10:15:38;;;;;;;;;;;17.90;49.20;;;;;;5043949;28;19913;-52
2022/03/04 10:18:04;;;;;;;;;;;17.90;49.30;;;;;;5042456;28;19913;-51
2022/03/04 10:20:39;;;;;;;;;;;17.90;49.40;;;;;;5042677;28;19913;-55
2022/03/04 10:23:24;;;;;;;;;;;17.90;49.50;;;;;;5040839;28;20516;-51
2022/03/04 10:25:51;;;;;;;;;;;17.80;49.40;;;;;;5034141;28;20689;-51
2022/03/04 10:28:17;;;;;;;;;;;17.80;49.60;;;;;;5038635;28;19920;-53
2022/03/04 10:30:43;;;;;;;;;;;17.70;49.60;;;;;;5042511;28;19913;-51
2022/03/04 10:33:09;;;;;;;;;;;17.70;49.70;;;;;;5042056;28;19913;-55
2022/03/04 10:35:34;;;;;;;;;;;17.70;49.60;;;;;;5043061;28;19920;-54
2022/03/04 10:38:00;;;;;;;;;;;17.70;49.60;;;;;;5040736;28;20305;-55
2022/03/04 10:40:25;;;;;;;;;;;17.70;49.40;;;;;;5041293;28;20202;-51
2022/03/04 10:42:51;;;;;;;;;;;17.70;49.50;;;;;;5042669;28;19924;-51
2022/03/04 10:45:26;;;;;;;;;;;17.70;49.40;;;;;;5042338;28;20029;-56
2022/03/04 10:47:52;;;;;;;;;;;17.60;49.60;;;;;;5040005;28;19931;-52
2022/03/04 10:50:19;;;;;;;;;;;17.60;49.80;;;;;;5040440;28;20508;-54
2022/03/04 10:52:48;;;;;;;;;;;17.60;49.80;;;;;;5042350;28;19940;-51
2022/03/04 10:55:17;;;;;;;;;;;17.60;49.90;;;;;;5042083;28;19917;-52
2022/03/04 10:57:43;;;;;;;;;;;17.50;49.80;;;;;;5040964;28;20577;-51
2022/03/04 11:00:09;;;;;;;;;;;17.60;49.90;;;;;;5041862;28;19921;-53
2022/03/04 11:02:44;;;;;;;;;;;17.60;49.60;;;;;;5041703;28;19913;-51
2022/03/04 11:05:09;;;;;;;;;;;17.60;49.50;;;;;;5041460;28;19924;-51
2022/03/04 11:07:35;;;;;;;;;;;17.70;49.40;;;;;;5041561;28;19913;-54
2022/03/04 11:10:01;;;;;;;;;;;17.70;49.40;;;;;;5042664;28;19944;-54
2022/03/04 11:12:27;;;;;;;;;;;17.70;49.40;;;;;;5042214;28;20425;-55
2022/03/04 11:14:53;;;;;;;;;;;17.60;49.40;;;;;;5038500;28;19916;-54
2022/03/04 11:17:18;;;;;;;;;;;17.60;49.30;;;;;;5043101;28;19912;-56
2022/03/04 11:19:43;;;;;;;;;;;17.60;49.30;;;;;;5038147;28;19913;-52
2022/03/04 11:22:10;;;;;;;;;;;17.60;49.30;;;;;;5041326;28;19913;-54
2022/03/04 11:24:37;;;;;;;;;;;17.60;49.30;;;;;;5040496;28;19913;-55
2022/03/04 11:27:04;;;;;;;;;;;17.60;49.30;;;;;;5038581;28;19912;-55
2022/03/04 11:29:34;;;;;;;;;;;17.70;49.30;;;;;;5018925;28;19984;-52
2022/03/04 11:31:59;;;;;;;;;;;17.70;49.20;;;;;;5015771;28;20011;-54
2022/03/04 11:34:34;;;;;;;;;;;17.70;49.00;;;;;;5035649;28;19912;-53
2022/03/04 11:37:03;;;;;;;;;;;17.60;49.10;;;;;;5042240;28;19919;-53
2022/03/04 11:39:28;;;;;;;;;;;17.70;49.20;;;;;;5045126;28;19913;-53
2022/03/04 11:41:54;;;;;;;;;;;17.70;49.00;;;;;;5032168;28;20362;-51
2022/03/04 11:44:19;;;;;;;;;;;17.70;49.00;;;;;;5046739;28;19954;-51
2022/03/04 11:46:45;;;;;;;;;;;17.70;49.20;;;;;;5040167;28;19947;-54
2022/03/04 11:49:29;;;;;;;;;;;17.60;49.30;;;;;;5047143;28;19943;-54
2022/03/04 11:52:10;;;;;;;;;;;17.70;49.30;;;;;;5040213;28;19921;-54
2022/03/04 11:54:36;;;;;;;;;;;17.70;49.30;;;;;;5040367;28;19939;-54
2022/03/04 11:57:14;;;;;;;;;;;17.60;49.30;;;;;;5042704;28;19950;-49
2022/03/04 11:59:39;;;;;;;;;;;17.70;49.30;;;;;;5043423;28;19924;-53
2022/03/04 12:02:05;;;;;;;;;;;17.70;49.20;;;;;;5041888;28;19944;-55
2022/03/04 12:04:31;;;;;;;;;;;17.70;49.10;;;;;;5045541;28;19920;-51
2022/03/04 12:07:05;;;;;;;;;;;17.60;49.20;;;;;;5032849;28;19917;-51
2022/03/04 12:09:31;;;;;;;;;;;17.60;49.20;;;;;;5021699;28;19960;-51
2022/03/04 12:12:18;;;;;;;;;;;17.70;49.20;;;;;;5041431;28;20386;-51
2022/03/04 12:14:47;;;;;;;;;;;17.70;49.00;;;;;;5040811;28;20132;-55
2022/03/04 12:17:13;;;;;;;;;;;17.70;49.70;;;;;;5035660;28;20045;-51
2022/03/04 12:19:39;;;;;;;;;;;17.70;48.90;;;;;;5040416;28;19917;-52
2022/03/04 12:22:05;;;;;;;;;;;17.70;48.90;;;;;;5023491;28;20278;-52
2022/03/04 12:24:31;;;;;;;;;;;17.80;49.10;;;;;;5049418;28;20001;-52
2022/03/04 12:26:57;;;;;;;;;;;17.80;49.00;;;;;;5044704;28;20007;-53
2022/03/04 12:29:25;;;;;;;;;;;17.80;48.90;;;;;;5053333;28;20006;-54
2022/03/04 12:31:51;;;;;;;;;;;17.80;49.00;;;;;;5039669;28;19938;-54
2022/03/04 12:34:16;;;;;;;;;;;17.80;48.90;;;;;;5049950;28;20361;-54
2022/03/04 12:36:42;;;;;;;;;;;17.80;48.90;;;;;;5047146;28;19912;-51
2022/03/04 12:39:07;;;;;;;;;;;17.80;48.80;;;;;;5050993;28;19913;-53
2022/03/04 12:41:33;;;;;;;;;;;17.80;48.80;;;;;;5041244;28;19913;-54
2022/03/04 12:43:59;;;;;;;;;;;17.70;49.50;;;;;;5053896;28;19913;-54
2022/03/04 12:46:28;;;;;;;;;;;17.80;48.90;;;;;;5040611;28;20003;-54
2022/03/04 12:48:53;;;;;;;;;;;17.80;48.80;;;;;;5052162;28;19913;-54
2022/03/04 12:51:29;;;;;;;;;;;17.80;48.70;;;;;;5040485;28;19962;-54
2022/03/04 12:53:55;;;;;;;;;;;17.80;48.80;;;;;;5051956;28;19955;-52
2022/03/04 12:56:22;;;;;;;;;;;17.80;48.80;;;;;;5039275;28;19913;-51
2022/03/04 12:58:48;;;;;;;;;;;17.80;48.90;;;;;;5053030;28;19962;-54
2022/03/04 13:01:14;;;;;;;;;;;17.80;48.80;;;;;;5038387;28;20251;-55
2022/03/04 13:03:47;;;;;;;;;;;17.70;48.70;;;;;;5054029;28;19916;-51
2022/03/04 13:06:12;;;;;;;;;;;17.80;48.90;;;;;;5042195;28;19920;-51
2022/03/04 13:08:45;;;;;;;;;;;17.80;48.80;;;;;;5064504;28;19913;-51
2022/03/04 13:11:11;;;;;;;;;;;17.80;48.70;;;;;;5039097;28;20305;-52
2022/03/04 13:13:55;;;;;;;;;;;17.80;48.60;;;;;;5053820;28;19979;-53
2022/03/04 13:16:27;;;;;;;;;;;17.70;48.80;;;;;;5038575;28;20460;-54
2022/03/04 13:18:53;;;;;;;;;;;17.80;48.80;;;;;;5054159;28;20263;-51
2022/03/04 13:21:19;;;;;;;;;;;17.80;48.80;;;;;;5039574;28;19974;-52
2022/03/04 13:23:48;;;;;;;;;;;17.80;48.70;;;;;;5042852;28;20253;-52
2022/03/04 13:26:13;;;;;;;;;;;17.80;48.60;;;;;;5037455;28;19968;-53
2022/03/04 13:28:58;;;;;;;;;;;17.70;48.80;;;;;;5053196;28;19931;-53
2022/03/04 13:31:27;;;;;;;;;;;17.80;48.70;;;;;;5030642;28;19920;-52
2022/03/04 13:33:59;;;;;;;;;;;17.80;48.70;;;;;;5054746;28;19987;-53
2022/03/04 13:36:40;;;;;;;;;;;17.80;48.60;;;;;;5039167;28;19920;-53
2022/03/04 13:39:26;;;;;;;;;;;17.70;48.70;;;;;;5056666;28;19988;-54
2022/03/04 13:42:10;;;;;;;;;;;17.80;48.60;;;;;;5041452;28;20949;-52
2022/03/04 13:44:56;;;;;;;;;;;17.70;48.60;;;;;;5046086;28;19916;-54
2022/03/04 13:47:31;;;;;;;;;;;17.70;48.70;;;;;;5042332;28;19992;-52
2022/03/04 13:49:57;;;;;;;;;;;17.70;48.70;;;;;;5035110;28;21274;-53
2022/03/04 13:52:22;;;;;;;;;;;17.70;48.80;;;;;;5049890;28;19912;-55
2022/03/04 13:55:01;;;;;;;;;;;17.70;48.70;;;;;;5043574;28;19913;-51
2022/03/04 13:57:29;;;;;;;;;;;17.70;48.90;;;;;;5046855;28;19916;-50
2022/03/04 14:00:11;;;;;;;;;;;17.70;48.80;;;;;;5042223;28;19927;-52
2022/03/04 14:02:43;;;;;;;;;;;17.70;48.90;;;;;;5047501;28;19912;-55
2022/03/04 14:05:08;;;;;;;;;;;17.70;48.80;;;;;;5043020;28;19924;-53
2022/03/04 14:07:46;;;;;;;;;;;17.60;48.80;;;;;;5050392;28;19912;-51
2022/03/04 14:10:13;;;;;;;;;;;17.60;48.80;;;;;;5043510;28;20018;-55
2022/03/04 14:12:39;;;;;;;;;;;17.70;49.00;;;;;;5059603;28;20269;-54
2022/03/04 14:15:05;;;;;;;;;;;17.70;48.80;;;;;;5043600;28;19913;-54